sensor_id;sensor_type;location;lat;lon;timestamp;temperature;humidity
16532;DHT22;8378;57.698;11.958;2022-12-08T00:01:18;20.30;23.00
16532;DHT22;8378;57.698;11.958;2022-12-08T00:03:44;20.30;22.90
16532;DHT22;8378;57.698;11.958;2022-12-08T00:06:21;20.30;22.90
16532;DHT22;8378;57.698;11.958;2022-12-08T00:09:11;20.30;22.90
16532;DHT22;8378;57.698;11.958;2022-12-08T00:11:47;20.30;22.90
16532;DHT22;8378;57.698;11.958;2022-12-08T00:14:13;20.30;22.90
16532;DHT22;8378;57.698;11.958;2022-12-08T00:16:39;20.30;22.90
16532;DHT22;8378;57.698;11.958;2022-12-08T00:19:04;20.30;22.90
16532;DHT22;8378;57.698;11.958;2022-12-08T00:21:30;20.30;22.90
16532;DHT22;8378;57.698;11.958;2022-12-08T00:23:55;20.30;22.90
16532;DHT22;8378;57.698;11.958;2022-12-08T00:26:21;20.30;22.90
16532;DHT22;8378;57.698;11.958;2022-12-08T00:28:47;20.30;22.90
16532;DHT22;8378;57.698;11.958;2022-12-08T00:31:12;20.30;22.90
16532;DHT22;8378;57.698;11.958;2022-12-08T00:33:38;20.20;22.80
16532;DHT22;8378;57.698;11.958;2022-12-08T00:36:08;20.20;22.90
16532;DHT22;8378;57.698;11.958;2022-12-08T00:38:35;20.20;22.80
16532;DHT22;8378;57.698;11.958;2022-12-08T00:41:01;20.20;22.90
16532;DHT22;8378;57.698;11.958;2022-12-08T00:43:27;20.20;22.80
16532;DHT22;8378;57.698;11.958;2022-12-08T00:45:53;20.20;22.90
16532;DHT22;8378;57.698;11.958;2022-12-08T00:48:18;20.20;22.90
16532;DHT22;8378;57.698;11.958;2022-12-08T00:50:44;20.20;22.80
16532;DHT22;8378;57.698;11.958;2022-12-08T00:53:09;20.20;22.90
16532;DHT22;8378;57.698;11.958;2022-12-08T00:55:35;20.20;22.80
16532;DHT22;8378;57.698;11.958;2022-12-08T00:58:00;20.20;22.90
16532;DHT22;8378;57.698;11.958;2022-12-08T01:00:26;20.20;22.80
16532;DHT22;8378;57.698;11.958;2022-12-08T01:02:51;20.20;22.90
16532;DHT22;8378;57.698;11.958;2022-12-08T01:05:17;20.20;22.90
16532;DHT22;8378;57.698;11.958;2022-12-08T01:07:42;20.20;22.90
16532;DHT22;8378;57.698;11.958;2022-12-08T01:10:08;20.20;22.90
16532;DHT22;8378;57.698;11.958;2022-12-08T01:12:34;20.20;22.90
16532;DHT22;8378;57.698;11.958;2022-12-08T01:14:59;20.20;22.80
16532;DHT22;8378;57.698;11.958;2022-12-08T01:17:25;20.20;22.90
16532;DHT22;8378;57.698;11.958;2022-12-08T01:19:51;20.20;22.90
16532;DHT22;8378;57.698;11.958;2022-12-08T01:22:16;20.20;22.90
16532;DHT22;8378;57.698;11.958;2022-12-08T01:24:42;20.20;22.80
16532;DHT22;8378;57.698;11.958;2022-12-08T01:27:07;20.20;22.80
16532;DHT22;8378;57.698;11.958;2022-12-08T01:29:33;20.20;22.80
16532;DHT22;8378;57.698;11.958;2022-12-08T01:31:58;20.20;22.80
16532;DHT22;8378;57.698;11.958;2022-12-08T01:34:24;20.20;22.90
16532;DHT22;8378;57.698;11.958;2022-12-08T01:36:50;20.20;22.90
16532;DHT22;8378;57.698;11.958;2022-12-08T01:39:17;20.20;22.90
16532;DHT22;8378;57.698;11.958;2022-12-08T01:41:44;20.20;22.90
16532;DHT22;8378;57.698;11.958;2022-12-08T01:46:38;20.20;22.90
16532;DHT22;8378;57.698;11.958;2022-12-08T01:49:11;20.20;22.90
16532;DHT22;8378;57.698;11.958;2022-12-08T01:51:55;20.20;22.90
16532;DHT22;8378;57.698;11.958;2022-12-08T01:54:23;20.20;22.80
16532;DHT22;8378;57.698;11.958;2022-12-08T01:59:19;20.20;22.80
16532;DHT22;8378;57.698;11.958;2022-12-08T02:01:44;20.20;22.90
16532;DHT22;8378;57.698;11.958;2022-12-08T02:04:10;20.20;22.90
16532;DHT22;8378;57.698;11.958;2022-12-08T02:06:40;20.20;22.90
16532;DHT22;8378;57.698;11.958;2022-12-08T02:09:07;20.20;22.80
16532;DHT22;8378;57.698;11.958;2022-12-08T02:11:33;20.20;22.80
16532;DHT22;8378;57.698;11.958;2022-12-08T02:14:00;20.20;22.80
16532;DHT22;8378;57.698;11.958;2022-12-08T02:16:48;20.20;22.80
16532;DHT22;8378;57.698;11.958;2022-12-08T02:25:13;20.20;22.80
16532;DHT22;8378;57.698;11.958;2022-12-08T02:30:21;20.20;22.80
16532;DHT22;8378;57.698;11.958;2022-12-08T02:38:50;20.20;22.80
16532;DHT22;8378;57.698;11.958;2022-12-08T02:41:31;20.10;22.70
16532;DHT22;8378;57.698;11.958;2022-12-08T02:46:34;20.10;22.70
16532;DHT22;8378;57.698;11.958;2022-12-08T02:49:02;20.10;22.70
16532;DHT22;8378;57.698;11.958;2022-12-08T02:51:29;20.10;22.70
16532;DHT22;8378;57.698;11.958;2022-12-08T02:53:55;20.10;22.70
16532;DHT22;8378;57.698;11.958;2022-12-08T02:59:31;20.10;22.70
16532;DHT22;8378;57.698;11.958;2022-12-08T03:02:15;20.10;22.70
16532;DHT22;8378;57.698;11.958;2022-12-08T03:05:31;20.10;22.60
16532;DHT22;8378;57.698;11.958;2022-12-08T03:08:09;20.10;22.70
16532;DHT22;8378;57.698;11.958;2022-12-08T03:13:31;20.10;22.60
16532;DHT22;8378;57.698;11.958;2022-12-08T03:15:59;20.10;22.70
16532;DHT22;8378;57.698;11.958;2022-12-08T03:18:27;20.10;22.60
16532;DHT22;8378;57.698;11.958;2022-12-08T03:20:55;20.10;22.70
16532;DHT22;8378;57.698;11.958;2022-12-08T03:23:21;20.10;22.70
16532;DHT22;8378;57.698;11.958;2022-12-08T03:25:58;20.10;22.70
16532;DHT22;8378;57.698;11.958;2022-12-08T03:28:25;20.10;23.10
16532;DHT22;8378;57.698;11.958;2022-12-08T03:30:54;20.10;22.70
16532;DHT22;8378;57.698;11.958;2022-12-08T03:33:31;20.10;22.70
16532;DHT22;8378;57.698;11.958;2022-12-08T03:36:00;20.10;22.70
16532;DHT22;8378;57.698;11.958;2022-12-08T03:38:47;20.10;22.70
16532;DHT22;8378;57.698;11.958;2022-12-08T03:41:14;20.10;22.60
16532;DHT22;8378;57.698;11.958;2022-12-08T03:44:03;20.10;22.70
16532;DHT22;8378;57.698;11.958;2022-12-08T03:46:29;20.10;22.70
16532;DHT22;8378;57.698;11.958;2022-12-08T03:48:56;20.10;22.90
16532;DHT22;8378;57.698;11.958;2022-12-08T03:51:22;20.10;22.70
16532;DHT22;8378;57.698;11.958;2022-12-08T03:53:47;20.10;22.70
16532;DHT22;8378;57.698;11.958;2022-12-08T03:56:25;20.10;22.70
16532;DHT22;8378;57.698;11.958;2022-12-08T03:58:51;20.10;22.60
16532;DHT22;8378;57.698;11.958;2022-12-08T04:01:17;20.10;22.70
16532;DHT22;8378;57.698;11.958;2022-12-08T04:03:42;20.10;22.60
16532;DHT22;8378;57.698;11.958;2022-12-08T04:06:08;20.10;22.60
16532;DHT22;8378;57.698;11.958;2022-12-08T04:08:34;20.10;22.60
16532;DHT22;8378;57.698;11.958;2022-12-08T04:10:59;20.10;22.60
16532;DHT22;8378;57.698;11.958;2022-12-08T04:13:25;20.10;22.60
16532;DHT22;8378;57.698;11.958;2022-12-08T04:15:50;20.10;22.60
16532;DHT22;8378;57.698;11.958;2022-12-08T04:18:16;20.10;22.60
16532;DHT22;8378;57.698;11.958;2022-12-08T04:20:42;20.10;22.60
16532;DHT22;8378;57.698;11.958;2022-12-08T04:23:08;20.10;22.60
16532;DHT22;8378;57.698;11.958;2022-12-08T04:25:35;20.10;22.60
16532;DHT22;8378;57.698;11.958;2022-12-08T04:28:01;20.10;22.60
16532;DHT22;8378;57.698;11.958;2022-12-08T04:30:26;20.10;22.60
16532;DHT22;8378;57.698;11.958;2022-12-08T04:32:52;20.10;22.60
16532;DHT22;8378;57.698;11.958;2022-12-08T04:35:17;20.10;22.60
16532;DHT22;8378;57.698;11.958;2022-12-08T04:37:43;20.10;22.50
16532;DHT22;8378;57.698;11.958;2022-12-08T04:40:10;20.10;22.60
16532;DHT22;8378;57.698;11.958;2022-12-08T04:42:36;20.10;22.60
16532;DHT22;8378;57.698;11.958;2022-12-08T04:45:02;20.10;22.50
16532;DHT22;8378;57.698;11.958;2022-12-08T04:47:28;20.10;22.60
16532;DHT22;8378;57.698;11.958;2022-12-08T04:49:53;20.10;22.60
16532;DHT22;8378;57.698;11.958;2022-12-08T04:52:19;20.10;22.60
16532;DHT22;8378;57.698;11.958;2022-12-08T04:54:45;20.10;22.60
16532;DHT22;8378;57.698;11.958;2022-12-08T04:57:11;20.10;23.10
16532;DHT22;8378;57.698;11.958;2022-12-08T04:59:37;20.10;22.60
16532;DHT22;8378;57.698;11.958;2022-12-08T05:02:02;20.10;22.60
16532;DHT22;8378;57.698;11.958;2022-12-08T05:04:28;20.10;22.60
16532;DHT22;8378;57.698;11.958;2022-12-08T05:06:53;20.10;22.60
16532;DHT22;8378;57.698;11.958;2022-12-08T05:09:19;20.10;22.60
16532;DHT22;8378;57.698;11.958;2022-12-08T05:11:45;20.10;22.60
16532;DHT22;8378;57.698;11.958;2022-12-08T05:14:11;20.10;22.60
16532;DHT22;8378;57.698;11.958;2022-12-08T05:16:37;20.10;22.60
16532;DHT22;8378;57.698;11.958;2022-12-08T05:19:04;20.10;22.60
16532;DHT22;8378;57.698;11.958;2022-12-08T05:21:29;20.10;22.50
16532;DHT22;8378;57.698;11.958;2022-12-08T05:23:55;20.10;22.50
16532;DHT22;8378;57.698;11.958;2022-12-08T05:26:20;20.10;22.50
16532;DHT22;8378;57.698;11.958;2022-12-08T05:28:46;20.10;22.50
16532;DHT22;8378;57.698;11.958;2022-12-08T05:31:13;20.10;22.50
16532;DHT22;8378;57.698;11.958;2022-12-08T05:33:39;20.10;22.50
16532;DHT22;8378;57.698;11.958;2022-12-08T05:36:05;20.10;22.50
16532;DHT22;8378;57.698;11.958;2022-12-08T05:38:31;20.10;22.60
16532;DHT22;8378;57.698;11.958;2022-12-08T05:40:57;20.10;22.50
16532;DHT22;8378;57.698;11.958;2022-12-08T05:43:23;20.10;22.50
16532;DHT22;8378;57.698;11.958;2022-12-08T05:45:48;20.10;22.60
16532;DHT22;8378;57.698;11.958;2022-12-08T05:48:14;20.10;22.60
16532;DHT22;8378;57.698;11.958;2022-12-08T05:50:47;20.10;22.60
16532;DHT22;8378;57.698;11.958;2022-12-08T05:53:14;20.10;22.50
16532;DHT22;8378;57.698;11.958;2022-12-08T05:55:40;20.10;22.50
16532;DHT22;8378;57.698;11.958;2022-12-08T05:58:06;20.10;22.50
16532;DHT22;8378;57.698;11.958;2022-12-08T06:00:32;20.10;22.50
16532;DHT22;8378;57.698;11.958;2022-12-08T06:02:59;20.10;22.50
16532;DHT22;8378;57.698;11.958;2022-12-08T06:05:25;20.10;22.50
16532;DHT22;8378;57.698;11.958;2022-12-08T06:07:51;20.10;22.50
16532;DHT22;8378;57.698;11.958;2022-12-08T06:10:16;20.10;22.60
16532;DHT22;8378;57.698;11.958;2022-12-08T06:12:42;20.10;22.50
16532;DHT22;8378;57.698;11.958;2022-12-08T06:15:08;20.10;22.50
16532;DHT22;8378;57.698;11.958;2022-12-08T06:17:33;20.10;22.50
16532;DHT22;8378;57.698;11.958;2022-12-08T06:19:59;20.10;22.50
16532;DHT22;8378;57.698;11.958;2022-12-08T06:22:25;20.10;22.50
16532;DHT22;8378;57.698;11.958;2022-12-08T06:24:50;20.10;22.50
16532;DHT22;8378;57.698;11.958;2022-12-08T06:27:16;20.10;22.50
16532;DHT22;8378;57.698;11.958;2022-12-08T06:29:41;20.10;22.50
16532;DHT22;8378;57.698;11.958;2022-12-08T06:32:07;20.10;22.50
16532;DHT22;8378;57.698;11.958;2022-12-08T06:34:32;20.10;22.50
16532;DHT22;8378;57.698;11.958;2022-12-08T06:36:58;20.10;22.50
16532;DHT22;8378;57.698;11.958;2022-12-08T06:39:23;20.10;22.50
16532;DHT22;8378;57.698;11.958;2022-12-08T06:41:49;20.10;22.50
16532;DHT22;8378;57.698;11.958;2022-12-08T06:44:33;20.10;22.50
16532;DHT22;8378;57.698;11.958;2022-12-08T06:46:58;20.10;22.50
16532;DHT22;8378;57.698;11.958;2022-12-08T06:49:24;20.10;22.50
16532;DHT22;8378;57.698;11.958;2022-12-08T06:51:50;20.20;22.60
16532;DHT22;8378;57.698;11.958;2022-12-08T06:54:15;20.10;22.50
16532;DHT22;8378;57.698;11.958;2022-12-08T06:56:41;20.10;22.50
16532;DHT22;8378;57.698;11.958;2022-12-08T06:59:06;20.10;22.50
16532;DHT22;8378;57.698;11.958;2022-12-08T07:01:32;20.10;22.50
16532;DHT22;8378;57.698;11.958;2022-12-08T07:03:57;20.10;22.50
16532;DHT22;8378;57.698;11.958;2022-12-08T07:06:24;20.10;22.50
16532;DHT22;8378;57.698;11.958;2022-12-08T07:08:49;20.10;22.50
16532;DHT22;8378;57.698;11.958;2022-12-08T07:11:16;20.10;22.50
16532;DHT22;8378;57.698;11.958;2022-12-08T07:13:41;20.10;22.50
16532;DHT22;8378;57.698;11.958;2022-12-08T07:16:08;20.10;22.50
16532;DHT22;8378;57.698;11.958;2022-12-08T07:18:35;20.10;22.50
16532;DHT22;8378;57.698;11.958;2022-12-08T07:21:06;20.10;22.50
16532;DHT22;8378;57.698;11.958;2022-12-08T07:23:32;20.10;22.50
16532;DHT22;8378;57.698;11.958;2022-12-08T07:26:02;20.10;22.50
16532;DHT22;8378;57.698;11.958;2022-12-08T07:28:31;20.10;22.50
16532;DHT22;8378;57.698;11.958;2022-12-08T07:30:57;20.10;22.50
16532;DHT22;8378;57.698;11.958;2022-12-08T07:33:23;20.10;22.50
16532;DHT22;8378;57.698;11.958;2022-12-08T07:36:00;20.10;22.50
16532;DHT22;8378;57.698;11.958;2022-12-08T07:38:26;20.10;22.50
16532;DHT22;8378;57.698;11.958;2022-12-08T07:40:53;20.10;22.50
16532;DHT22;8378;57.698;11.958;2022-12-08T07:43:19;20.10;23.00
16532;DHT22;8378;57.698;11.958;2022-12-08T07:45:44;20.10;22.50
16532;DHT22;8378;57.698;11.958;2022-12-08T07:48:10;20.10;22.60
16532;DHT22;8378;57.698;11.958;2022-12-08T07:50:36;20.10;22.50
16532;DHT22;8378;57.698;11.958;2022-12-08T07:53:02;20.10;22.60
16532;DHT22;8378;57.698;11.958;2022-12-08T07:55:27;20.10;22.50
16532;DHT22;8378;57.698;11.958;2022-12-08T07:57:53;20.10;22.50
16532;DHT22;8378;57.698;11.958;2022-12-08T08:00:19;20.10;22.50
16532;DHT22;8378;57.698;11.958;2022-12-08T08:02:45;20.10;22.50
16532;DHT22;8378;57.698;11.958;2022-12-08T08:05:10;20.10;22.60
16532;DHT22;8378;57.698;11.958;2022-12-08T08:07:40;20.10;22.50
16532;DHT22;8378;57.698;11.958;2022-12-08T08:10:11;20.10;22.50
16532;DHT22;8378;57.698;11.958;2022-12-08T08:12:37;20.10;22.50
16532;DHT22;8378;57.698;11.958;2022-12-08T08:15:05;20.10;22.50
16532;DHT22;8378;57.698;11.958;2022-12-08T08:17:35;20.10;22.50
16532;DHT22;8378;57.698;11.958;2022-12-08T08:20:03;20.10;22.60
16532;DHT22;8378;57.698;11.958;2022-12-08T08:22:31;20.10;22.50
16532;DHT22;8378;57.698;11.958;2022-12-08T08:24:56;20.10;22.60
16532;DHT22;8378;57.698;11.958;2022-12-08T08:27:22;20.10;22.50
16532;DHT22;8378;57.698;11.958;2022-12-08T08:29:47;20.10;22.50
16532;DHT22;8378;57.698;11.958;2022-12-08T08:32:13;20.10;22.60
16532;DHT22;8378;57.698;11.958;2022-12-08T08:34:38;20.10;22.60
16532;DHT22;8378;57.698;11.958;2022-12-08T08:37:04;20.10;22.60
16532;DHT22;8378;57.698;11.958;2022-12-08T08:39:29;20.10;22.60
16532;DHT22;8378;57.698;11.958;2022-12-08T08:41:57;20.10;22.60
16532;DHT22;8378;57.698;11.958;2022-12-08T08:44:22;20.10;22.60
16532;DHT22;8378;57.698;11.958;2022-12-08T08:46:48;20.10;22.60
16532;DHT22;8378;57.698;11.958;2022-12-08T08:49:13;20.10;22.70
16532;DHT22;8378;57.698;11.958;2022-12-08T08:51:39;20.10;22.60
16532;DHT22;8378;57.698;11.958;2022-12-08T08:54:05;20.10;22.70
16532;DHT22;8378;57.698;11.958;2022-12-08T08:56:30;20.10;22.60
16532;DHT22;8378;57.698;11.958;2022-12-08T08:58:56;20.10;22.70
16532;DHT22;8378;57.698;11.958;2022-12-08T09:01:25;20.10;22.70
16532;DHT22;8378;57.698;11.958;2022-12-08T09:03:51;20.10;22.70
16532;DHT22;8378;57.698;11.958;2022-12-08T09:06:17;20.10;22.70
16532;DHT22;8378;57.698;11.958;2022-12-08T09:08:44;20.10;22.70
16532;DHT22;8378;57.698;11.958;2022-12-08T09:11:10;20.10;22.70
16532;DHT22;8378;57.698;11.958;2022-12-08T09:13:36;20.10;22.70
16532;DHT22;8378;57.698;11.958;2022-12-08T09:16:04;20.10;23.30
16532;DHT22;8378;57.698;11.958;2022-12-08T09:18:30;20.10;22.70
16532;DHT22;8378;57.698;11.958;2022-12-08T09:20:56;20.10;22.70
16532;DHT22;8378;57.698;11.958;2022-12-08T09:23:27;20.10;22.70
16532;DHT22;8378;57.698;11.958;2022-12-08T09:25:53;20.10;22.80
16532;DHT22;8378;57.698;11.958;2022-12-08T09:28:18;20.10;22.80
16532;DHT22;8378;57.698;11.958;2022-12-08T09:30:44;20.10;22.80
16532;DHT22;8378;57.698;11.958;2022-12-08T09:33:09;20.10;22.80
16532;DHT22;8378;57.698;11.958;2022-12-08T09:35:35;20.10;22.80
16532;DHT22;8378;57.698;11.958;2022-12-08T09:38:00;20.10;22.80
16532;DHT22;8378;57.698;11.958;2022-12-08T09:40:26;20.10;22.80
16532;DHT22;8378;57.698;11.958;2022-12-08T09:43:24;20.10;22.80
16532;DHT22;8378;57.698;11.958;2022-12-08T09:45:54;20.00;22.80
16532;DHT22;8378;57.698;11.958;2022-12-08T09:48:31;20.10;22.80
16532;DHT22;8378;57.698;11.958;2022-12-08T09:50:58;20.10;22.90
16532;DHT22;8378;57.698;11.958;2022-12-08T09:53:38;20.00;22.90
16532;DHT22;8378;57.698;11.958;2022-12-08T09:56:20;20.10;22.90
16532;DHT22;8378;57.698;11.958;2022-12-08T09:59:05;20.10;23.50
16532;DHT22;8378;57.698;11.958;2022-12-08T10:01:35;20.10;23.00
16532;DHT22;8378;57.698;11.958;2022-12-08T10:04:32;20.10;23.00
16532;DHT22;8378;57.698;11.958;2022-12-08T10:17:51;20.10;23.10
16532;DHT22;8378;57.698;11.958;2022-12-08T10:20:20;20.10;23.10
16532;DHT22;8378;57.698;11.958;2022-12-08T10:22:50;20.10;23.20
16532;DHT22;8378;57.698;11.958;2022-12-08T10:25:27;20.10;23.20
16532;DHT22;8378;57.698;11.958;2022-12-08T10:27:55;20.10;23.10
16532;DHT22;8378;57.698;11.958;2022-12-08T10:30:22;20.10;23.20
16532;DHT22;8378;57.698;11.958;2022-12-08T10:32:50;20.10;23.20
16532;DHT22;8378;57.698;11.958;2022-12-08T10:35:18;20.10;23.20
16532;DHT22;8378;57.698;11.958;2022-12-08T10:38:02;20.10;23.30
16532;DHT22;8378;57.698;11.958;2022-12-08T10:40:35;20.10;23.30
16532;DHT22;8378;57.698;11.958;2022-12-08T10:43:01;20.10;23.30
16532;DHT22;8378;57.698;11.958;2022-12-08T10:45:37;20.10;23.40
16532;DHT22;8378;57.698;11.958;2022-12-08T10:48:15;20.10;23.40
16532;DHT22;8378;57.698;11.958;2022-12-08T10:50:44;20.10;23.40
16532;DHT22;8378;57.698;11.958;2022-12-08T10:53:14;20.10;23.40
16532;DHT22;8378;57.698;11.958;2022-12-08T10:58:37;20.10;23.90
16532;DHT22;8378;57.698;11.958;2022-12-08T11:06:15;20.10;23.40
16532;DHT22;8378;57.698;11.958;2022-12-08T11:08:55;20.10;23.40
16532;DHT22;8378;57.698;11.958;2022-12-08T11:11:21;20.10;23.40
16532;DHT22;8378;57.698;11.958;2022-12-08T11:14:07;20.10;23.40
16532;DHT22;8378;57.698;11.958;2022-12-08T11:16:34;20.10;23.40
16532;DHT22;8378;57.698;11.958;2022-12-08T11:19:03;20.10;23.40
16532;DHT22;8378;57.698;11.958;2022-12-08T11:21:37;20.10;23.40
16532;DHT22;8378;57.698;11.958;2022-12-08T11:24:23;20.10;23.40
16532;DHT22;8378;57.698;11.958;2022-12-08T11:27:00;20.10;23.30
16532;DHT22;8378;57.698;11.958;2022-12-08T11:29:31;20.10;23.30
16532;DHT22;8378;57.698;11.958;2022-12-08T11:32:01;20.10;23.40
16532;DHT22;8378;57.698;11.958;2022-12-08T11:34:39;20.10;23.40
16532;DHT22;8378;57.698;11.958;2022-12-08T11:37:12;20.10;23.30
16532;DHT22;8378;57.698;11.958;2022-12-08T11:39:43;20.10;23.30
16532;DHT22;8378;57.698;11.958;2022-12-08T11:42:12;20.10;23.30
16532;DHT22;8378;57.698;11.958;2022-12-08T11:44:49;20.10;23.40
16532;DHT22;8378;57.698;11.958;2022-12-08T11:47:29;20.10;23.20
16532;DHT22;8378;57.698;11.958;2022-12-08T11:50:37;20.10;23.20
16532;DHT22;8378;57.698;11.958;2022-12-08T11:52:58;20.10;23.30
16532;DHT22;8378;57.698;11.958;2022-12-08T11:55:40;20.10;23.30
16532;DHT22;8378;57.698;11.958;2022-12-08T11:58:43;20.10;23.30
16532;DHT22;8378;57.698;11.958;2022-12-08T12:01:19;20.10;23.30
16532;DHT22;8378;57.698;11.958;2022-12-08T12:06:45;20.10;23.80
16532;DHT22;8378;57.698;11.958;2022-12-08T12:15:42;20.10;23.80
16532;DHT22;8378;57.698;11.958;2022-12-08T12:18:24;20.10;23.40
16532;DHT22;8378;57.698;11.958;2022-12-08T12:26:24;20.10;23.40
16532;DHT22;8378;57.698;11.958;2022-12-08T12:28:58;20.10;23.40
16532;DHT22;8378;57.698;11.958;2022-12-08T12:31:28;20.10;23.40
16532;DHT22;8378;57.698;11.958;2022-12-08T12:34:05;20.10;23.50
16532;DHT22;8378;57.698;11.958;2022-12-08T12:36:47;20.10;23.40
16532;DHT22;8378;57.698;11.958;2022-12-08T12:39:13;20.10;23.40
16532;DHT22;8378;57.698;11.958;2022-12-08T12:41:55;20.10;23.50
16532;DHT22;8378;57.698;11.958;2022-12-08T12:57:20;20.10;23.40
16532;DHT22;8378;57.698;11.958;2022-12-08T13:00:07;20.10;23.50
16532;DHT22;8378;57.698;11.958;2022-12-08T13:07:52;20.10;23.40
16532;DHT22;8378;57.698;11.958;2022-12-08T13:10:25;20.10;23.40
16532;DHT22;8378;57.698;11.958;2022-12-08T13:13:20;20.10;23.40
16532;DHT22;8378;57.698;11.958;2022-12-08T13:15:55;20.10;23.40
16532;DHT22;8378;57.698;11.958;2022-12-08T13:18:36;20.10;23.40
16532;DHT22;8378;57.698;11.958;2022-12-08T13:21:22;20.10;23.40
16532;DHT22;8378;57.698;11.958;2022-12-08T13:29:28;20.10;23.40
16532;DHT22;8378;57.698;11.958;2022-12-08T13:31:58;20.10;23.40
16532;DHT22;8378;57.698;11.958;2022-12-08T13:47:15;20.10;23.40
16532;DHT22;8378;57.698;11.958;2022-12-08T13:49:50;20.10;23.40
16532;DHT22;8378;57.698;11.958;2022-12-08T13:52:31;20.10;23.40
16532;DHT22;8378;57.698;11.958;2022-12-08T13:54:59;20.10;23.40
16532;DHT22;8378;57.698;11.958;2022-12-08T13:57:31;20.10;23.40
16532;DHT22;8378;57.698;11.958;2022-12-08T14:00:04;20.10;23.40
16532;DHT22;8378;57.698;11.958;2022-12-08T14:02:35;20.10;23.40
16532;DHT22;8378;57.698;11.958;2022-12-08T14:05:02;20.10;23.40
16532;DHT22;8378;57.698;11.958;2022-12-08T14:07:28;20.10;23.40
16532;DHT22;8378;57.698;11.958;2022-12-08T14:09:55;20.10;23.40
16532;DHT22;8378;57.698;11.958;2022-12-08T14:12:24;20.10;23.40
16532;DHT22;8378;57.698;11.958;2022-12-08T14:14:52;20.10;23.80
16532;DHT22;8378;57.698;11.958;2022-12-08T14:17:20;20.10;23.40
16532;DHT22;8378;57.698;11.958;2022-12-08T14:19:57;20.10;23.30
16532;DHT22;8378;57.698;11.958;2022-12-08T14:22:23;20.10;23.30
16532;DHT22;8378;57.698;11.958;2022-12-08T14:24:51;20.10;23.30
16532;DHT22;8378;57.698;11.958;2022-12-08T14:27:20;20.10;23.30
16532;DHT22;8378;57.698;11.958;2022-12-08T14:29:54;20.10;23.30
16532;DHT22;8378;57.698;11.958;2022-12-08T14:37:34;20.10;23.30
16532;DHT22;8378;57.698;11.958;2022-12-08T14:40:18;20.10;23.30
16532;DHT22;8378;57.698;11.958;2022-12-08T14:42:47;20.10;23.30
16532;DHT22;8378;57.698;11.958;2022-12-08T14:45:14;20.10;23.30
16532;DHT22;8378;57.698;11.958;2022-12-08T14:47:40;20.10;23.30
16532;DHT22;8378;57.698;11.958;2022-12-08T14:53:00;20.10;23.30
16532;DHT22;8378;57.698;11.958;2022-12-08T14:55:34;20.10;23.40
16532;DHT22;8378;57.698;11.958;2022-12-08T14:58:01;20.10;23.30
16532;DHT22;8378;57.698;11.958;2022-12-08T15:00:27;20.10;23.40
16532;DHT22;8378;57.698;11.958;2022-12-08T15:02:53;20.10;23.30
16532;DHT22;8378;57.698;11.958;2022-12-08T15:05:20;20.10;23.30
16532;DHT22;8378;57.698;11.958;2022-12-08T15:07:53;20.10;23.30
16532;DHT22;8378;57.698;11.958;2022-12-08T15:10:23;20.10;23.30
16532;DHT22;8378;57.698;11.958;2022-12-08T15:13:01;20.10;23.30
16532;DHT22;8378;57.698;11.958;2022-12-08T15:15:29;20.10;23.20
16532;DHT22;8378;57.698;11.958;2022-12-08T15:18:11;20.10;23.30
16532;DHT22;8378;57.698;11.958;2022-12-08T15:20:44;20.10;23.20
16532;DHT22;8378;57.698;11.958;2022-12-08T15:23:25;20.10;23.30
16532;DHT22;8378;57.698;11.958;2022-12-08T15:25:52;20.10;23.20
16532;DHT22;8378;57.698;11.958;2022-12-08T15:28:19;20.10;23.30
16532;DHT22;8378;57.698;11.958;2022-12-08T15:30:45;20.10;23.30
16532;DHT22;8378;57.698;11.958;2022-12-08T15:33:11;20.10;23.30
16532;DHT22;8378;57.698;11.958;2022-12-08T15:35:37;20.10;23.30
16532;DHT22;8378;57.698;11.958;2022-12-08T15:38:04;20.10;23.30
16532;DHT22;8378;57.698;11.958;2022-12-08T15:40:30;20.10;23.30
16532;DHT22;8378;57.698;11.958;2022-12-08T15:42:55;20.10;23.30
16532;DHT22;8378;57.698;11.958;2022-12-08T15:45:25;20.10;23.30
16532;DHT22;8378;57.698;11.958;2022-12-08T15:47:52;20.20;23.30
16532;DHT22;8378;57.698;11.958;2022-12-08T15:50:20;20.10;23.20
16532;DHT22;8378;57.698;11.958;2022-12-08T15:52:47;20.10;23.20
16532;DHT22;8378;57.698;11.958;2022-12-08T15:55:14;20.20;23.40
16532;DHT22;8378;57.698;11.958;2022-12-08T15:57:43;20.20;23.30
16532;DHT22;8378;57.698;11.958;2022-12-08T16:00:25;20.20;23.40
16532;DHT22;8378;57.698;11.958;2022-12-08T16:02:52;20.20;23.30
16532;DHT22;8378;57.698;11.958;2022-12-08T16:05:18;20.20;23.40
16532;DHT22;8378;57.698;11.958;2022-12-08T16:07:44;20.20;23.40
16532;DHT22;8378;57.698;11.958;2022-12-08T16:10:18;20.20;23.30
16532;DHT22;8378;57.698;11.958;2022-12-08T16:12:44;20.20;23.80
16532;DHT22;8378;57.698;11.958;2022-12-08T16:15:29;20.20;23.30
16532;DHT22;8378;57.698;11.958;2022-12-08T16:17:56;20.20;23.30
16532;DHT22;8378;57.698;11.958;2022-12-08T16:20:23;20.20;23.40
16532;DHT22;8378;57.698;11.958;2022-12-08T16:22:48;20.20;23.30
16532;DHT22;8378;57.698;11.958;2022-12-08T16:25:14;20.20;23.30
16532;DHT22;8378;57.698;11.958;2022-12-08T16:27:40;20.20;23.30
16532;DHT22;8378;57.698;11.958;2022-12-08T16:30:15;20.20;23.30
16532;DHT22;8378;57.698;11.958;2022-12-08T16:32:41;20.20;23.30
16532;DHT22;8378;57.698;11.958;2022-12-08T16:35:07;20.20;23.30
16532;DHT22;8378;57.698;11.958;2022-12-08T16:37:32;20.20;23.30
16532;DHT22;8378;57.698;11.958;2022-12-08T16:39:58;20.20;23.80
16532;DHT22;8378;57.698;11.958;2022-12-08T16:42:26;20.20;23.30
16532;DHT22;8378;57.698;11.958;2022-12-08T16:47:32;20.20;23.30
16532;DHT22;8378;57.698;11.958;2022-12-08T16:49:58;20.20;23.30
16532;DHT22;8378;57.698;11.958;2022-12-08T16:52:23;20.20;23.30
16532;DHT22;8378;57.698;11.958;2022-12-08T16:54:49;20.20;23.20
16532;DHT22;8378;57.698;11.958;2022-12-08T16:57:15;20.20;23.20
16532;DHT22;8378;57.698;11.958;2022-12-08T16:59:40;20.20;23.20
16532;DHT22;8378;57.698;11.958;2022-12-08T17:02:06;20.20;23.20
16532;DHT22;8378;57.698;11.958;2022-12-08T17:04:32;20.20;23.20
16532;DHT22;8378;57.698;11.958;2022-12-08T17:06:58;20.20;23.20
16532;DHT22;8378;57.698;11.958;2022-12-08T17:09:25;20.20;23.20
16532;DHT22;8378;57.698;11.958;2022-12-08T17:11:50;20.20;23.20
16532;DHT22;8378;57.698;11.958;2022-12-08T17:14:16;20.20;23.20
16532;DHT22;8378;57.698;11.958;2022-12-08T17:16:42;20.20;23.20
16532;DHT22;8378;57.698;11.958;2022-12-08T17:19:08;20.20;23.20
16532;DHT22;8378;57.698;11.958;2022-12-08T17:21:34;20.20;23.20
16532;DHT22;8378;57.698;11.958;2022-12-08T17:24:00;20.20;23.20
16532;DHT22;8378;57.698;11.958;2022-12-08T17:26:25;20.20;23.20
16532;DHT22;8378;57.698;11.958;2022-12-08T17:28:51;20.20;23.20
16532;DHT22;8378;57.698;11.958;2022-12-08T17:31:16;20.20;23.20